Time;durP1;ratioP1;P1;durP2;ratioP2;P2;SDS_P1;SDS_P2;PMS_P1;PMS_P2;Temp;Humidity;BMP_temperature;BMP_pressure;BME280_temperature;BME280_humidity;BME280_pressure;Samples;Min_cycle;Max_cycle;Signal;HPM_P1;HPM_P2
2023/05/10 00:01:02;;;;;;;0.32;0.20;;;22.40;51.40;;;;;;6188549;28;20509;-48
2023/05/10 00:04:04;;;;;;;;;;;22.40;51.30;;;;;;6187440;28;20105;-51
2023/05/10 00:07:06;;;;;;;0.30;0.30;;;22.50;51.40;;;;;;6189097;28;19965;-49
2023/05/10 00:10:11;;;;;;;0.35;0.20;;;22.50;51.20;;;;;;6189372;28;20046;-52
2023/05/10 00:13:14;;;;;;;1.05;0.20;;;22.40;51.00;;;;;;6188901;28;20046;-50
2023/05/10 00:16:16;;;;;;;0.65;0.32;;;22.50;51.00;;;;;;6189825;28;20046;-51
2023/05/10 00:19:17;;;;;;;0.40;0.20;;;22.40;51.00;;;;;;6189857;28;20608;-53
2023/05/10 00:22:21;;;;;;;;;;;22.40;51.00;;;;;;6190631;28;20555;-51
2023/05/10 00:25:24;;;;;;;0.35;0.28;;;22.30;51.10;;;;;;6189353;28;19925;-52
2023/05/10 00:28:27;;;;;;;0.20;0.17;;;22.30;51.50;;;;;;6188931;28;20387;-51
2023/05/10 00:31:29;;;;;;;0.35;0.30;;;22.40;50.90;;;;;;6187574;28;20183;-51
2023/05/10 00:34:32;;;;;;;0.52;0.28;;;22.40;50.90;;;;;;6189863;28;20118;-50
2023/05/10 00:37:33;;;;;;;0.20;0.20;;;21.90;50.60;;;;;;6190388;28;20058;-53
2023/05/10 00:40:36;;;;;;;0.38;0.20;;;22.40;50.70;;;;;;6190122;28;20042;-49
2023/05/10 00:43:41;;;;;;;0.60;0.30;;;22.30;50.70;;;;;;6189928;28;20038;-51
2023/05/10 00:46:43;;;;;;;;;;;22.30;50.80;;;;;;6154431;28;20092;-50
2023/05/10 00:49:47;;;;;;;0.43;0.20;;;22.20;51.00;;;;;;6188289;28;19922;-50
2023/05/10 00:52:49;;;;;;;0.85;0.30;;;22.30;50.90;;;;;;6189488;28;20074;-47
2023/05/10 00:55:53;;;;;;;0.75;0.30;;;22.40;50.80;;;;;;6188989;28;20083;-53
2023/05/10 00:58:55;;;;;;;0.40;0.20;;;22.10;49.60;;;;;;6188490;28;20039;-51
2023/05/10 01:01:58;;;;;;;0.75;0.38;;;21.90;50.60;;;;;;6190878;28;20030;-52
2023/05/10 01:05:00;;;;;;;0.40;0.20;;;22.30;50.90;;;;;;6192198;28;20417;-51
2023/05/10 01:08:02;;;;;;;0.50;0.30;;;22.20;50.80;;;;;;6191577;28;20521;-57
2023/05/10 01:11:07;;;;;;;0.35;0.30;;;22.40;50.60;;;;;;6190222;28;20038;-58
2023/05/10 01:14:09;;;;;;;0.52;0.20;;;22.30;50.90;;;;;;6190902;28;20475;-58
2023/05/10 01:17:12;;;;;;;0.70;0.30;;;22.30;50.80;;;;;;6190616;28;20049;-58
2023/05/10 01:20:15;;;;;;;0.52;0.30;;;22.10;50.70;;;;;;6263403;23;20032;-53
2023/05/10 01:23:34;;;;;;;0.20;0.20;;;22.20;50.70;;;;;;6203742;28;20068;-52
2023/05/10 01:27:08;;;;;;;0.40;0.20;;;22.00;50.60;;;;;;6202740;28;20060;-51
2023/05/10 01:30:29;;;;;;;0.28;0.17;;;22.30;50.80;;;;;;6203078;28;20046;-53
2023/05/10 01:33:37;;;;;;;0.25;0.20;;;22.10;50.70;;;;;;6204303;28;20039;-52
2023/05/10 01:36:45;;;;;;;0.68;0.22;;;22.30;50.80;;;;;;6203924;28;20047;-52
2023/05/10 01:39:52;;;;;;;0.68;0.40;;;22.20;50.80;;;;;;6204678;28;20039;-52
2023/05/10 01:43:02;;;;;;;0.40;0.40;;;22.20;50.80;;;;;;6204283;28;20045;-53
2023/05/10 01:46:10;;;;;;;0.30;0.30;;;22.10;50.80;;;;;;6203622;28;20023;-53
2023/05/10 01:49:21;;;;;;;0.30;0.30;;;22.10;50.80;;;;;;6204182;28;20047;-53
2023/05/10 01:52:30;;;;;;;0.45;0.20;;;22.10;50.80;;;;;;6203026;28;20046;-47
2023/05/10 01:55:35;;;;;;;0.50;0.30;;;22.10;50.80;;;;;;6203537;28;20030;-50
2023/05/10 01:58:40;;;;;;;0.45;0.20;;;22.10;50.80;;;;;;6202701;28;20061;-53
2023/05/10 02:01:44;;;;;;;0.40;0.20;;;22.00;50.80;;;;;;6203331;28;20061;-54
2023/05/10 02:04:50;;;;;;;0.20;0.20;;;22.20;50.90;;;;;;6204375;28;20043;-52
2023/05/10 02:07:52;;;;;;;0.52;0.30;;;22.20;51.00;;;;;;6204151;28;20046;-51
2023/05/10 02:10:56;;;;;;;0.52;0.30;;;21.90;51.00;;;;;;6203288;28;20035;-53
2023/05/10 02:13:58;;;;;;;0.50;0.20;;;22.10;51.00;;;;;;6204246;28;20039;-52
2023/05/10 02:17:05;;;;;;;0.68;0.40;;;22.10;51.00;;;;;;6203650;28;20043;-53
2023/05/10 02:20:10;;;;;;;0.93;0.30;;;22.10;51.00;;;;;;6204191;28;20043;-52
2023/05/10 02:23:12;;;;;;;0.20;0.20;;;22.10;51.00;;;;;;6203968;28;20034;-52
2023/05/10 02:26:14;;;;;;;0.30;0.30;;;22.20;51.20;;;;;;6202326;28;20038;-52
2023/05/10 02:29:17;;;;;;;0.43;0.25;;;22.20;51.30;;;;;;6203454;28;20521;-52
2023/05/10 02:32:19;;;;;;;0.50;0.30;;;22.10;51.20;;;;;;6203477;28;20035;-53
2023/05/10 02:35:27;;;;;;;0.35;0.30;;;21.70;51.00;;;;;;6203750;28;20042;-54
2023/05/10 02:38:30;;;;;;;0.73;0.30;;;22.00;51.10;;;;;;6202363;28;20035;-54
2023/05/10 02:41:33;;;;;;;0.43;0.20;;;22.10;51.20;;;;;;6203398;28;20047;-53
2023/05/10 02:44:37;;;;;;;0.93;0.40;;;22.00;51.20;;;;;;6203529;28;20043;-53
2023/05/10 02:47:39;;;;;;;1.13;0.30;;;22.10;51.20;;;;;;6203384;28;20046;-51
2023/05/10 02:50:44;;;;;;;0.60;0.32;;;22.00;51.20;;;;;;6203447;28;20082;-50
2023/05/10 02:53:48;;;;;;;0.52;0.20;;;21.90;51.20;;;;;;6203188;28;20023;-52
2023/05/10 02:56:55;;;;;;;0.47;0.30;;;22.10;51.30;;;;;;6201571;28;20074;-52
2023/05/10 03:00:00;;;;;;;0.75;0.40;;;21.90;51.20;;;;;;6202859;28;20031;-51
2023/05/10 03:03:01;;;;;;;0.32;0.20;;;22.00;51.40;;;;;;6203550;28;20039;-49
2023/05/10 03:06:04;;;;;;;0.85;0.30;;;21.90;51.40;;;;;;6202777;28;20046;-50
2023/05/10 03:09:07;;;;;;;0.40;0.30;;;22.00;51.40;;;;;;6202482;28;20069;-51
2023/05/10 03:12:15;;;;;;;1.02;0.30;;;21.90;51.40;;;;;;6202074;28;20026;-53
2023/05/10 03:15:31;;;;;;;0.68;0.47;;;22.00;51.40;;;;;;6201292;28;20061;-49
2023/05/10 03:18:42;;;;;;;0.40;0.20;;;21.80;51.30;;;;;;6202317;28;20023;-53
2023/05/10 03:21:50;;;;;;;0.40;0.30;;;22.00;51.40;;;;;;6200906;28;20086;-50
2023/05/10 03:24:55;;;;;;;0.73;0.30;;;22.10;51.40;;;;;;6200766;28;20118;-51
2023/05/10 03:27:58;;;;;;;0.47;0.20;;;21.80;51.30;;;;;;6200007;28;20042;-50
2023/05/10 03:33:46;;;;;;;0.85;0.30;;;21.70;46.80;;;;;;6464350;27;20169;-50
2023/05/10 03:36:48;;;;;;;0.82;0.40;;;22.00;47.20;;;;;;6436658;27;20086;-49
2023/05/10 03:39:49;;;;;;;;;;;21.80;47.20;;;;;;6437747;27;20045;-45
2023/05/10 03:42:52;;;;;;;0.25;0.25;;;21.80;47.40;;;;;;6437529;27;19995;-47
2023/05/10 03:45:54;;;;;;;0.82;0.30;;;21.90;47.30;;;;;;6435895;27;20042;-48
2023/05/10 03:48:58;;;;;;;0.30;0.20;;;22.10;47.30;;;;;;6435145;27;20313;-51
2023/05/10 03:51:59;;;;;;;0.38;0.25;;;22.10;47.30;;;;;;6436515;27;20444;-49
2023/05/10 03:55:03;;;;;;;0.57;0.30;;;21.90;47.30;;;;;;6437725;27;20548;-48
2023/05/10 03:58:05;;;;;;;0.60;0.40;;;21.90;47.30;;;;;;6414175;27;20034;-48
2023/05/10 04:01:07;;;;;;;0.95;0.40;;;22.00;47.40;;;;;;6411530;27;20330;-50
2023/05/10 04:04:09;;;;;;;;;;;22.00;47.40;;;;;;6411545;27;20031;-48
2023/05/10 04:07:10;;;;;;;;;;;21.90;47.60;;;;;;6410643;27;19927;-49
2023/05/10 04:10:12;;;;;;;0.70;0.30;;;21.50;47.60;;;;;;6410608;27;19976;-50
2023/05/10 04:13:14;;;;;;;0.63;0.30;;;21.90;47.60;;;;;;6410205;27;20062;-49
2023/05/10 04:16:16;;;;;;;0.70;0.30;;;21.90;47.60;;;;;;6410209;27;20404;-46
2023/05/10 04:19:18;;;;;;;0.40;0.30;;;21.40;47.20;;;;;;6409004;27;20073;-49
2023/05/10 04:22:20;;;;;;;0.20;0.20;;;21.80;47.60;;;;;;6409232;27;20043;-50
2023/05/10 04:25:22;;;;;;;0.30;0.20;;;21.50;47.30;;;;;;6408252;27;20079;-49
2023/05/10 04:28:23;;;;;;;1.10;0.35;;;21.70;47.50;;;;;;6408905;27;20069;-49
2023/05/10 04:31:24;;;;;;;0.30;0.20;;;21.60;47.50;;;;;;6408645;27;20038;-50
2023/05/10 04:34:26;;;;;;;;;;;22.00;47.70;;;;;;6391056;27;20230;-47
2023/05/10 04:37:28;;;;;;;;;;;21.70;47.80;;;;;;6408671;27;20291;-46
2023/05/10 04:40:29;;;;;;;1.13;0.30;;;21.40;47.70;;;;;;6409055;27;19919;-46
2023/05/10 04:43:31;;;;;;;0.73;0.43;;;21.70;47.60;;;;;;6399425;27;20077;-50
2023/05/10 04:46:35;;;;;;;1.13;0.38;;;21.90;47.80;;;;;;6392660;27;20041;-50
2023/05/10 04:49:37;;;;;;;0.50;0.30;;;21.90;47.70;;;;;;6391317;27;20034;-45
2023/05/10 04:52:39;;;;;;;0.70;0.30;;;21.90;47.90;;;;;;6391537;27;20035;-49
2023/05/10 04:55:40;;;;;;;0.57;0.43;;;21.80;47.90;;;;;;6391607;27;20039;-47
2023/05/10 04:58:41;;;;;;;;;;;21.90;47.90;;;;;;6390431;27;20045;-47
2023/05/10 05:01:45;;;;;;;0.43;0.22;;;21.80;48.10;;;;;;6390408;27;20546;-46
2023/05/10 05:04:47;;;;;;;0.55;0.30;;;21.70;47.80;;;;;;6390147;27;20142;-49
2023/05/10 05:07:49;;;;;;;0.32;0.20;;;21.60;47.80;;;;;;6391104;27;20031;-49
2023/05/10 05:10:50;;;;;;;0.70;0.30;;;21.90;48.10;;;;;;6393262;27;20039;-50
2023/05/10 05:13:52;;;;;;;0.88;0.30;;;21.50;47.80;;;;;;6394266;27;20462;-44
2023/05/10 05:16:54;;;;;;;1.73;0.55;;;21.80;48.10;;;;;;6375162;27;20397;-48
2023/05/10 05:19:56;;;;;;;0.70;0.20;;;21.80;48.00;;;;;;6392800;27;20042;-48
2023/05/10 05:22:57;;;;;;;0.43;0.30;;;21.80;48.10;;;;;;6392495;27;20095;-44
2023/05/10 05:25:59;;;;;;;;;;;21.80;48.00;;;;;;6391504;27;20452;-49
2023/05/10 05:29:00;;;;;;;0.95;0.35;;;22.10;48.50;;;;;;6390643;27;19946;-48
2023/05/10 05:32:02;;;;;;;0.20;0.17;;;21.90;48.10;;;;;;6391232;27;20433;-45
2023/05/10 05:35:07;;;;;;;0.40;0.30;;;21.90;48.30;;;;;;6389482;27;20304;-47
2023/05/10 05:38:09;;;;;;;0.70;0.40;;;21.40;48.00;;;;;;6390285;27;20045;-49
2023/05/10 05:41:10;;;;;;;0.43;0.30;;;21.80;48.30;;;;;;6390235;27;20074;-46
2023/05/10 05:44:12;;;;;;;;;;;21.90;48.50;;;;;;6390475;27;20080;-44
2023/05/10 05:47:13;;;;;;;0.63;0.25;;;21.40;48.50;;;;;;6392084;27;19919;-49
2023/05/10 05:50:15;;;;;;;;;;;21.90;48.40;;;;;;6389483;27;20095;-50
2023/05/10 05:53:18;;;;;;;0.43;0.28;;;21.90;48.80;;;;;;6388388;27;19930;-46
2023/05/10 05:56:24;;;;;;;1.40;0.30;;;21.90;48.70;;;;;;6336821;27;20066;-47
2023/05/10 05:59:25;;;;;;;0.77;0.40;;;21.90;48.60;;;;;;6390018;27;20038;-51
2023/05/10 06:02:30;;;;;;;0.50;0.40;;;21.90;48.70;;;;;;6373786;27;20039;-47
2023/05/10 06:05:32;;;;;;;3.00;0.90;;;21.80;49.00;;;;;;6388940;27;20039;-48
2023/05/10 06:08:33;;;;;;;1.55;0.45;;;21.30;48.60;;;;;;6331730;27;20042;-49
2023/05/10 06:11:35;;;;;;;;;;;22.10;49.30;;;;;;6386890;27;20073;-47
2023/05/10 06:14:36;;;;;;;1.15;0.40;;;21.50;49.30;;;;;;6387223;27;20441;-46
2023/05/10 06:17:38;;;;;;;1.75;0.60;;;21.90;49.30;;;;;;6384349;27;20485;-51
2023/05/10 06:20:42;;;;;;;1.40;0.50;;;21.80;49.30;;;;;;6386105;27;20511;-49
2023/05/10 06:23:44;;;;;;;0.50;0.30;;;21.60;49.40;;;;;;6351006;27;20069;-47
2023/05/10 06:26:45;;;;;;;;;;;21.90;49.80;;;;;;6365633;27;20041;-49
2023/05/10 06:29:46;;;;;;;0.95;0.38;;;22.20;50.30;;;;;;6382992;27;19972;-50
2023/05/10 06:32:48;;;;;;;;;;;21.90;49.80;;;;;;6382852;27;20077;-51
2023/05/10 06:35:51;;;;;;;0.80;0.30;;;21.80;50.20;;;;;;6380148;27;20613;-51
2023/05/10 06:38:53;;;;;;;1.70;0.47;;;21.50;49.80;;;;;;6383792;27;20723;-48
2023/05/10 06:41:57;;;;;;;1.35;0.73;;;21.80;50.10;;;;;;6383525;27;20043;-45
2023/05/10 06:44:59;;;;;;;1.40;0.63;;;21.90;50.20;;;;;;6381518;27;20027;-50
2023/05/10 06:48:00;;;;;;;1.30;0.68;;;21.90;50.40;;;;;;6372308;27;20126;-50
2023/05/10 06:51:03;;;;;;;1.48;0.63;;;21.80;50.30;;;;;;6380900;27;20043;-47
2023/05/10 06:54:04;;;;;;;2.13;0.55;;;21.70;50.50;;;;;;6379329;27;20031;-49
2023/05/10 06:57:06;;;;;;;;;;;21.80;50.70;;;;;;6378295;27;20038;-47
2023/05/10 07:00:21;;;;;;;0.32;0.22;;;21.40;50.70;;;;;;6373853;27;19953;-47
2023/05/10 07:03:23;;;;;;;1.05;0.52;;;21.60;50.60;;;;;;6369935;27;20035;-50
2023/05/10 07:06:30;;;;;;;1.20;0.60;;;21.70;51.10;;;;;;6346497;27;20038;-51
2023/05/10 07:09:35;;;;;;;0.77;0.60;;;22.10;51.30;;;;;;6339552;27;20027;-50
2023/05/10 07:12:36;;;;;;;1.05;0.40;;;22.00;50.90;;;;;;6338481;27;20026;-53
2023/05/10 07:15:38;;;;;;;1.48;0.40;;;22.10;51.50;;;;;;6337999;27;20027;-49
2023/05/10 07:18:40;;;;;;;0.35;0.30;;;22.00;50.90;;;;;;6344433;27;20031;-52
2023/05/10 07:21:43;;;;;;;;;;;22.10;51.00;;;;;;6341492;27;20034;-49
2023/05/10 07:24:45;;;;;;;0.85;0.40;;;22.00;51.20;;;;;;6372260;27;19919;-52
2023/05/10 07:27:48;;;;;;;1.80;0.20;;;22.10;51.10;;;;;;6373433;27;20077;-52
2023/05/10 07:30:50;;;;;;;1.38;0.55;;;22.40;51.40;;;;;;6372344;27;20042;-54
2023/05/10 07:33:51;;;;;;;0.73;0.30;;;22.10;52.40;;;;;;6368589;27;20537;-49
2023/05/10 07:36:53;;;;;;;;;;;22.10;52.50;;;;;;6369235;27;20026;-50
2023/05/10 07:39:55;;;;;;;0.95;0.40;;;22.20;52.60;;;;;;6370301;27;19930;-49
2023/05/10 07:42:57;;;;;;;1.70;0.70;;;22.20;52.40;;;;;;6334243;27;20095;-50
2023/05/10 07:46:00;;;;;;;0.43;0.30;;;22.30;52.40;;;;;;6344090;27;20034;-50
2023/05/10 07:49:02;;;;;;;1.58;0.40;;;22.40;52.50;;;;;;6359171;27;20715;-50
2023/05/10 07:52:06;;;;;;;0.93;0.40;;;22.30;52.40;;;;;;6353731;27;20691;-53
2023/05/10 07:55:08;;;;;;;0.60;0.45;;;22.00;51.90;;;;;;6375557;27;20035;-50
2023/05/10 07:58:10;;;;;;;1.02;0.40;;;22.30;52.00;;;;;;6374484;27;20043;-55
2023/05/10 08:01:11;;;;;;;;;;;22.30;52.00;;;;;;6366219;27;20038;-52
2023/05/10 08:04:13;;;;;;;1.70;0.25;;;22.00;51.90;;;;;;6372190;27;19919;-54
2023/05/10 08:07:15;;;;;;;1.60;0.30;;;21.70;51.70;;;;;;6370382;27;20697;-53
2023/05/10 08:10:17;;;;;;;1.58;0.45;;;22.40;51.80;;;;;;6372097;27;20750;-54
2023/05/10 08:13:18;;;;;;;0.30;0.22;;;22.50;51.70;;;;;;6369248;27;20091;-53
2023/05/10 08:16:20;;;;;;;;;;;22.60;51.70;;;;;;6371679;27;20046;-56
2023/05/10 08:19:22;;;;;;;0.70;0.30;;;22.80;52.10;;;;;;6366226;27;19923;-56
2023/05/10 08:22:24;;;;;;;1.00;0.60;;;22.50;52.10;;;;;;6373134;27;20708;-52
2023/05/10 08:25:26;;;;;;;0.93;0.32;;;22.50;51.70;;;;;;6370796;27;20731;-54
2023/05/10 08:28:27;;;;;;;;;;;22.50;52.10;;;;;;6370305;27;20042;-55
2023/05/10 08:31:29;;;;;;;1.58;0.40;;;21.70;51.80;;;;;;6342240;27;19922;-53
2023/05/10 08:34:30;;;;;;;;;;;22.70;51.90;;;;;;6376127;27;20035;-53
2023/05/10 08:37:33;;;;;;;0.75;0.20;;;22.50;52.20;;;;;;6339720;27;19983;-50
2023/05/10 08:40:38;;;;;;;0.52;0.22;;;22.30;52.00;;;;;;6337263;27;20039;-52
2023/05/10 08:43:41;;;;;;;2.28;0.30;;;22.50;52.10;;;;;;6338488;27;20852;-56
2023/05/10 08:46:47;;;;;;;0.70;0.20;;;22.60;52.00;;;;;;6337120;27;20023;-53
2023/05/10 08:49:50;;;;;;;0.40;0.30;;;22.50;52.00;;;;;;6340530;27;20044;-52
2023/05/10 08:52:57;;;;;;;0.52;0.20;;;22.40;51.70;;;;;;6368851;27;20035;-53
2023/05/10 08:56:01;;;;;;;0.75;0.20;;;22.40;51.90;;;;;;6351428;27;20035;-54
2023/05/10 08:59:02;;;;;;;0.95;0.30;;;22.50;51.90;;;;;;6354969;27;20154;-52
2023/05/10 09:02:05;;;;;;;0.90;0.20;;;22.50;52.20;;;;;;6341243;27;20069;-51
2023/05/10 09:05:07;;;;;;;0.50;0.22;;;22.50;52.10;;;;;;6350503;27;20195;-52
2023/05/10 09:08:11;;;;;;;0.63;0.43;;;22.50;51.10;;;;;;6355042;27;20035;-51
2023/05/10 09:11:13;;;;;;;0.93;0.40;;;22.50;51.10;;;;;;6329117;27;20761;-52
2023/05/10 09:14:16;;;;;;;1.52;0.38;;;22.10;51.30;;;;;;6324673;27;20049;-52
2023/05/10 09:17:17;;;;;;;0.60;0.30;;;22.60;51.40;;;;;;6350597;27;20035;-53
2023/05/10 09:20:22;;;;;;;1.05;0.30;;;22.60;51.10;;;;;;6356683;27;20030;-51
2023/05/10 09:23:31;;;;;;;0.80;0.20;;;22.40;50.80;;;;;;6359027;27;20108;-51
2023/05/10 09:26:35;;;;;;;0.70;0.30;;;22.60;51.00;;;;;;6342363;27;20035;-49
2023/05/10 09:29:40;;;;;;;0.57;0.40;;;22.60;51.00;;;;;;6366727;27;20035;-50
2023/05/10 09:32:43;;;;;;;0.70;0.50;;;22.50;50.80;;;;;;6371845;27;20046;-56
2023/05/10 09:35:44;;;;;;;1.75;0.25;;;22.70;51.00;;;;;;6343445;27;20797;-48
2023/05/10 09:38:49;;;;;;;0.63;0.30;;;22.60;51.20;;;;;;6352307;27;20735;-50
2023/05/10 09:41:51;;;;;;;0.70;0.40;;;22.70;51.20;;;;;;6339178;27;20034;-52
2023/05/10 09:45:00;;;;;;;0.60;0.40;;;22.70;51.60;;;;;;6371743;27;20039;-42
2023/05/10 09:48:05;;;;;;;0.50;0.30;;;22.70;51.40;;;;;;6369403;27;20038;-51
2023/05/10 09:51:07;;;;;;;0.52;0.40;;;22.50;51.50;;;;;;6347557;27;20130;-51
2023/05/10 09:54:10;;;;;;;;;;;22.60;51.60;;;;;;6364320;27;20042;-55
2023/05/10 09:57:20;;;;;;;0.30;0.20;;;22.50;51.80;;;;;;6368985;27;19919;-55
2023/05/10 10:00:22;;;;;;;0.50;0.30;;;22.70;51.90;;;;;;6372061;27;20103;-54
2023/05/10 10:03:24;;;;;;;0.98;0.38;;;22.60;52.10;;;;;;6370067;27;20750;-49
2023/05/10 10:06:26;;;;;;;0.40;0.30;;;22.70;52.30;;;;;;6366527;27;20039;-53
2023/05/10 10:09:33;;;;;;;0.60;0.30;;;22.80;52.50;;;;;;6360334;27;20798;-58
2023/05/10 10:12:35;;;;;;;1.95;0.32;;;22.50;52.50;;;;;;6329716;27;20050;-57
2023/05/10 10:15:37;;;;;;;0.68;0.20;;;22.70;52.70;;;;;;6357248;27;20027;-56
2023/05/10 10:18:42;;;;;;;4.03;0.90;;;22.60;52.90;;;;;;6302361;27;20118;-59
2023/05/10 10:21:46;;;;;;;0.45;0.20;;;22.90;52.90;;;;;;6348483;27;20081;-55
2023/05/10 10:24:50;;;;;;;0.93;0.30;;;22.50;52.80;;;;;;6339746;27;20031;-58
2023/05/10 10:28:06;;;;;;;0.30;0.28;;;22.70;53.20;;;;;;6338481;27;20065;-55
2023/05/10 10:31:18;;;;;;;0.77;0.30;;;22.80;53.10;;;;;;6342704;27;20031;-58
2023/05/10 10:34:27;;;;;;;0.60;0.20;;;22.60;52.60;;;;;;6353051;27;20034;-56
2023/05/10 10:37:43;;;;;;;0.40;0.30;;;22.90;52.70;;;;;;6366965;27;20607;-56
2023/05/10 10:40:45;;;;;;;0.52;0.20;;;22.80;52.50;;;;;;6367910;27;20073;-56
2023/05/10 10:43:47;;;;;;;0.52;0.30;;;22.30;52.20;;;;;;6363479;27;20042;-57
2023/05/10 10:47:02;;;;;;;0.68;0.43;;;22.80;52.40;;;;;;6369081;27;20648;-58
2023/05/10 10:50:06;;;;;;;0.20;0.10;;;22.80;52.40;;;;;;6370602;27;20737;-57
2023/05/10 10:53:11;;;;;;;1.00;0.30;;;22.60;52.20;;;;;;6353121;27;20780;-55
2023/05/10 10:56:15;;;;;;;0.20;0.10;;;22.70;52.50;;;;;;6355036;27;20709;-57
2023/05/10 10:59:27;;;;;;;0.10;0.10;;;22.40;52.50;;;;;;6372495;27;20600;-58
2023/05/10 11:02:34;;;;;;;0.45;0.28;;;22.80;53.70;;;;;;6366881;27;20038;-58
2023/05/10 11:05:39;;;;;;;0.30;0.17;;;22.50;53.60;;;;;;6367192;27;20043;-58
2023/05/10 11:08:45;;;;;;;0.30;0.30;;;22.80;53.00;;;;;;6370347;27;20030;-56
2023/05/10 11:11:54;;;;;;;0.35;0.20;;;23.00;53.30;;;;;;6369237;27;20030;-56
2023/05/10 11:14:58;;;;;;;0.60;0.30;;;22.70;53.20;;;;;;6355911;27;20027;-56
2023/05/10 11:18:00;;;;;;;0.32;0.10;;;22.90;53.40;;;;;;6358947;27;20031;-57
2023/05/10 11:21:04;;;;;;;0.25;0.20;;;22.40;53.10;;;;;;6358826;27;20125;-57
2023/05/10 11:24:13;;;;;;;0.20;0.20;;;22.90;53.40;;;;;;6375067;27;20038;-57
2023/05/10 11:27:18;;;;;;;0.55;0.20;;;23.00;53.40;;;;;;6347300;27;20654;-58
2023/05/10 11:30:20;;;;;;;0.47;0.20;;;22.80;53.90;;;;;;6351876;27;20043;-58
2023/05/10 11:33:25;;;;;;;0.22;0.20;;;22.70;53.30;;;;;;6375440;27;20050;-57
2023/05/10 11:36:29;;;;;;;0.20;0.20;;;22.90;53.20;;;;;;6374918;27;20031;-58
2023/05/10 11:39:33;;;;;;;1.63;0.30;;;23.00;53.70;;;;;;6366666;27;20055;-58
2023/05/10 11:42:37;;;;;;;1.23;0.10;;;22.90;53.90;;;;;;6364835;27;20111;-58
2023/05/10 11:45:41;;;;;;;0.40;0.20;;;22.60;53.90;;;;;;6374157;27;20680;-56
2023/05/10 11:48:43;;;;;;;0.75;0.13;;;22.90;54.20;;;;;;6369210;27;20084;-58
2023/05/10 11:51:44;;;;;;;0.13;0.10;;;22.80;54.30;;;;;;6374437;27;20095;-56
2023/05/10 11:54:51;;;;;;;0.32;0.20;;;23.00;54.60;;;;;;6375110;27;20027;-57
2023/05/10 11:57:53;;;;;;;0.28;0.20;;;22.90;54.60;;;;;;6369262;27;20035;-57
2023/05/10 12:00:59;;;;;;;0.10;0.10;;;22.90;54.80;;;;;;6332570;27;20079;-59
2023/05/10 12:04:01;;;;;;;0.30;0.20;;;23.00;55.30;;;;;;6371503;27;20039;-59
2023/05/10 12:07:05;;;;;;;0.30;0.20;;;22.90;55.30;;;;;;6355452;27;20607;-59
2023/05/10 12:10:08;;;;;;;0.57;0.20;;;22.90;55.50;;;;;;6357468;27;20033;-58
2023/05/10 12:13:15;;;;;;;1.17;0.30;;;22.90;55.60;;;;;;6357350;27;20179;-58
2023/05/10 12:16:18;;;;;;;0.25;0.10;;;22.90;56.00;;;;;;6334379;27;20034;-58
2023/05/10 12:19:20;;;;;;;1.15;0.10;;;23.60;56.10;;;;;;6294626;27;20038;-56
2023/05/10 12:22:24;;;;;;;0.10;0.10;;;22.10;55.30;;;;;;6328182;27;20046;-58
2023/05/10 12:25:31;;;;;;;0.75;0.20;;;23.20;55.90;;;;;;6333448;27;20042;-59
2023/05/10 12:28:34;;;;;;;0.17;0.15;;;23.00;55.70;;;;;;6337774;27;20093;-58
2023/05/10 12:31:49;;;;;;;0.35;0.20;;;23.00;55.60;;;;;;6369902;27;20669;-57
2023/05/10 12:34:53;;;;;;;0.63;0.25;;;23.00;55.60;;;;;;6374977;27;20590;-58
2023/05/10 12:37:54;;;;;;;0.25;0.20;;;23.10;55.60;;;;;;6366525;27;20034;-58
2023/05/10 12:40:56;;;;;;;;;;;22.60;55.40;;;;;;6373482;27;20035;-57
2023/05/10 12:43:58;;;;;;;0.50;0.20;;;22.80;55.60;;;;;;6370844;27;20056;-58
2023/05/10 12:47:03;;;;;;;0.35;0.10;;;23.00;55.60;;;;;;6367799;27;20030;-57
2023/05/10 12:50:05;;;;;;;0.20;0.15;;;22.80;55.50;;;;;;6366651;27;20106;-58
2023/05/10 12:53:10;;;;;;;0.35;0.20;;;22.60;55.30;;;;;;6338783;27;20047;-57
2023/05/10 12:56:12;;;;;;;0.40;0.20;;;22.90;55.50;;;;;;6361557;27;20688;-56
2023/05/10 12:59:14;;;;;;;0.20;0.17;;;23.00;55.40;;;;;;6362202;27;20037;-54
2023/05/10 13:02:19;;;;;;;0.38;0.20;;;23.00;55.60;;;;;;6379125;27;20027;-57
2023/05/10 13:05:21;;;;;;;0.10;0.10;;;22.80;55.30;;;;;;6405488;27;20064;-56
2023/05/10 13:08:22;;;;;;;;;;;23.20;55.50;;;;;;6386731;27;20031;-55
2023/05/10 13:11:25;;;;;;;0.95;0.10;;;22.80;55.40;;;;;;6377711;27;19915;-55
2023/05/10 13:14:27;;;;;;;0.40;0.22;;;23.50;55.90;;;;;;6385488;27;20043;-57
2023/05/10 13:17:29;;;;;;;0.50;0.20;;;22.90;55.50;;;;;;6397883;27;20066;-54
2023/05/10 13:20:32;;;;;;;0.40;0.20;;;22.80;55.90;;;;;;6371258;27;20054;-53
2023/05/10 13:23:33;;;;;;;0.40;0.20;;;22.90;55.90;;;;;;6373897;27;20045;-52
2023/05/10 13:26:36;;;;;;;0.30;0.20;;;23.10;56.10;;;;;;6373451;27;20023;-50
2023/05/10 13:29:38;;;;;;;0.52;0.20;;;23.00;56.60;;;;;;6365440;27;20106;-55
2023/05/10 13:32:45;;;;;;;0.70;0.20;;;22.60;56.10;;;;;;6367727;27;20038;-53
2023/05/10 13:35:47;;;;;;;0.85;0.35;;;22.90;56.50;;;;;;6355063;27;20119;-51
2023/05/10 13:38:49;;;;;;;0.50;0.22;;;23.10;56.70;;;;;;6370311;27;20041;-55
2023/05/10 13:41:50;;;;;;;0.40;0.20;;;21.90;56.20;;;;;;6363367;27;20079;-53
2023/05/10 13:44:52;;;;;;;0.50;0.28;;;22.90;56.80;;;;;;6357999;27;20090;-53
2023/05/10 13:47:57;;;;;;;0.20;0.20;;;23.10;57.20;;;;;;6331250;27;20042;-53
2023/05/10 13:50:58;;;;;;;0.30;0.20;;;23.30;57.40;;;;;;6333184;27;20035;-53
2023/05/10 13:54:00;;;;;;;0.30;0.22;;;22.90;57.20;;;;;;6337386;27;20035;-55
2023/05/10 13:57:04;;;;;;;0.20;0.10;;;23.00;57.10;;;;;;6360341;27;20023;-57
2023/05/10 14:00:07;;;;;;;0.10;0.10;;;22.90;56.60;;;;;;6363493;27;20035;-56
2023/05/10 14:03:11;;;;;;;0.22;0.20;;;23.10;56.30;;;;;;6368115;27;20130;-53
2023/05/10 14:06:13;;;;;;;0.20;0.20;;;22.90;55.80;;;;;;6365837;27;20091;-58
2023/05/10 14:09:15;;;;;;;0.52;0.10;;;23.10;55.90;;;;;;6362584;27;20470;-56
2023/05/10 14:12:17;;;;;;;0.32;0.32;;;23.00;55.30;;;;;;6392879;27;20052;-55
2023/05/10 14:15:19;;;;;;;0.20;0.10;;;23.10;54.90;;;;;;6379584;27;20027;-55
2023/05/10 14:18:21;;;;;;;0.17;0.17;;;22.70;54.60;;;;;;6385218;27;20034;-51
2023/05/10 14:21:23;;;;;;;0.13;0.13;;;23.10;54.70;;;;;;6355836;27;20640;-54
2023/05/10 14:24:24;;;;;;;0.10;0.10;;;23.10;54.40;;;;;;6372792;27;20027;-56
2023/05/10 14:27:28;;;;;;;0.20;0.10;;;23.00;54.40;;;;;;6337100;27;20046;-54
2023/05/10 14:30:32;;;;;;;0.13;0.13;;;22.90;54.40;;;;;;6361059;27;20038;-51
2023/05/10 14:33:33;;;;;;;0.25;0.17;;;23.00;54.60;;;;;;6364540;27;20099;-55
2023/05/10 14:36:35;;;;;;;0.52;0.28;;;23.10;54.90;;;;;;6371601;27;20045;-55
2023/05/10 14:39:36;;;;;;;;;;;22.00;54.40;;;;;;6375933;27;20083;-55
2023/05/10 14:42:38;;;;;;;0.95;0.57;;;22.80;55.00;;;;;;6370743;27;20626;-53
2023/05/10 14:45:41;;;;;;;1.10;0.52;;;23.00;55.00;;;;;;6371926;27;20023;-55
2023/05/10 14:48:42;;;;;;;0.40;0.40;;;23.00;55.20;;;;;;6337013;27;20043;-53
2023/05/10 14:51:44;;;;;;;;;;;23.00;55.30;;;;;;6368256;27;20095;-50
2023/05/10 14:54:46;;;;;;;0.30;0.20;;;23.00;55.30;;;;;;6376020;27;19955;-56
2023/05/10 14:57:50;;;;;;;1.08;0.38;;;23.20;55.40;;;;;;6375932;27;20035;-57
2023/05/10 15:00:52;;;;;;;1.50;0.15;;;23.20;55.50;;;;;;6372588;27;20046;-56
2023/05/10 15:03:53;;;;;;;0.20;0.17;;;22.90;55.50;;;;;;6367226;27;20030;-57
2023/05/10 15:06:58;;;;;;;0.70;0.20;;;22.90;55.70;;;;;;6347876;27;20167;-51
2023/05/10 15:10:00;;;;;;;0.88;0.20;;;23.10;55.90;;;;;;6373533;27;20092;-54
2023/05/10 15:13:04;;;;;;;0.45;0.30;;;23.00;55.60;;;;;;6371926;27;20031;-57
2023/05/10 15:16:06;;;;;;;0.10;0.10;;;23.30;55.80;;;;;;6391772;27;20099;-52
2023/05/10 15:19:08;;;;;;;0.10;0.10;;;23.10;55.60;;;;;;6397099;27;20060;-53
2023/05/10 15:22:10;;;;;;;;;;;23.00;55.60;;;;;;6389883;27;20058;-53
2023/05/10 15:25:12;;;;;;;0.17;0.17;;;22.70;55.50;;;;;;6386750;27;19915;-57
2023/05/10 15:28:14;;;;;;;1.55;0.20;;;23.20;55.90;;;;;;6397527;27;20075;-55
2023/05/10 15:31:16;;;;;;;;;;;23.10;55.70;;;;;;6371792;27;20590;-56
2023/05/10 15:34:17;;;;;;;0.63;0.28;;;22.70;55.50;;;;;;6400251;27;19917;-54
2023/05/10 15:37:19;;;;;;;2.35;0.30;;;23.00;55.60;;;;;;6389571;27;20031;-57
2023/05/10 15:40:20;;;;;;;;;;;22.00;55.20;;;;;;6378343;27;20769;-57
2023/05/10 15:43:22;;;;;;;0.63;0.20;;;23.10;56.00;;;;;;6371247;27;19919;-57
2023/05/10 15:46:28;;;;;;;0.20;0.20;;;23.20;55.70;;;;;;6379617;27;20111;-56
2023/05/10 15:49:29;;;;;;;0.28;0.20;;;23.10;55.50;;;;;;6386555;27;20094;-56
2023/05/10 15:52:34;;;;;;;0.43;0.20;;;23.10;55.90;;;;;;6374251;27;20031;-58
2023/05/10 15:55:36;;;;;;;0.25;0.20;;;23.10;56.00;;;;;;6399418;27;20039;-57
2023/05/10 15:58:38;;;;;;;1.00;0.28;;;22.70;55.80;;;;;;6376137;27;20034;-53
2023/05/10 16:01:40;;;;;;;0.22;0.20;;;23.10;56.10;;;;;;6351528;27;20034;-59
2023/05/10 16:04:43;;;;;;;0.25;0.20;;;23.10;56.30;;;;;;6340750;27;20685;-58
2023/05/10 16:07:45;;;;;;;0.10;0.10;;;23.00;56.30;;;;;;6337488;27;20034;-57